createdAt,value
2022-10-10T00:01:32.145Z,7.72
2022-10-10T00:04:00.038Z,9.77
2022-10-10T00:06:32.498Z,5.10
2022-10-10T00:09:00.367Z,13.73
2022-10-10T00:11:27.501Z,7.38
2022-10-10T00:13:54.657Z,4.28
2022-10-10T00:16:21.874Z,6.28
2022-10-10T00:18:49.308Z,5.85
2022-10-10T00:21:16.759Z,4.78
2022-10-10T00:23:44.061Z,4.28
2022-10-10T00:26:16.298Z,4.70
2022-10-10T00:28:45.924Z,9.38
2022-10-10T00:31:13.148Z,6.43
2022-10-10T00:33:40.381Z,5.97
2022-10-10T00:36:07.872Z,10.75
2022-10-10T00:38:35.145Z,7.03
2022-10-10T00:41:02.367Z,6.15
2022-10-10T00:43:30.743Z,4.53
2022-10-10T00:45:57.919Z,7.03
2022-10-10T00:48:26.752Z,8.35
2022-10-10T00:50:56.293Z,7.57
2022-10-10T00:53:27.857Z,9.38
2022-10-10T00:55:55.324Z,6.55
2022-10-10T00:58:22.944Z,5.72
2022-10-10T01:00:50.361Z,5.28
2022-10-10T01:03:17.536Z,6.93
2022-10-10T01:05:46.027Z,6.25
2022-10-10T01:08:13.222Z,8.85
2022-10-10T01:10:47.165Z,6.53
2022-10-10T01:13:31.576Z,7.60
2022-10-10T01:16:15.494Z,8.45
2022-10-10T01:18:42.901Z,3.42
2022-10-10T01:21:28.911Z,4.95
2022-10-10T01:24:14.910Z,3.72
2022-10-10T01:26:45.097Z,6.07
2022-10-10T01:29:20.150Z,4.18
2022-10-10T01:31:49.357Z,7.85
2022-10-10T01:34:34.853Z,10.27
2022-10-10T01:37:17.312Z,7.13
2022-10-10T01:39:44.390Z,7.10
2022-10-10T01:42:16.557Z,5.30
2022-10-10T01:44:47.593Z,6.50
2022-10-10T01:47:15.159Z,4.32
2022-10-10T01:49:44.065Z,6.63
2022-10-10T01:52:29.535Z,4.45
2022-10-10T01:55:05.739Z,6.32
2022-10-10T01:57:35.883Z,5.82
2022-10-10T02:00:06.103Z,4.15
2022-10-10T02:02:36.261Z,4.35
2022-10-10T02:05:22.066Z,3.78
2022-10-10T02:08:04.432Z,4.28
2022-10-10T02:10:36.407Z,6.20
2022-10-10T02:13:04.885Z,7.22
2022-10-10T02:15:38.742Z,5.57
2022-10-10T02:18:07.918Z,6.70
2022-10-10T02:20:35.685Z,4.47
2022-10-10T02:23:03.058Z,5.55
2022-10-10T02:25:32.182Z,6.90
2022-10-10T02:28:08.545Z,4.80
2022-10-10T02:30:37.204Z,3.42
2022-10-10T02:33:06.538Z,4.72
2022-10-10T02:35:36.383Z,13.77
2022-10-10T02:38:04.843Z,7.72
2022-10-10T02:40:33.450Z,4.13
2022-10-10T02:43:01.772Z,9.10
2022-10-10T02:45:33.089Z,6.47
2022-10-10T02:48:00.941Z,9.45
2022-10-10T02:50:28.994Z,5.05
2022-10-10T02:52:56.200Z,4.50
2022-10-10T02:55:23.338Z,5.97
2022-10-10T02:57:50.544Z,6.03
2022-10-10T03:00:18.210Z,3.83
2022-10-10T03:02:46.357Z,4.07
2022-10-10T03:05:14.006Z,5.72
2022-10-10T03:07:41.101Z,5.18
2022-10-10T03:10:08.489Z,5.85
2022-10-10T03:12:35.993Z,3.83
2022-10-10T03:15:05.066Z,6.00
2022-10-10T03:17:35.098Z,4.30
2022-10-10T03:20:03.789Z,4.10
2022-10-10T03:22:30.970Z,5.20
2022-10-10T03:24:58.079Z,4.35
2022-10-10T03:27:25.195Z,3.38
2022-10-10T03:29:52.312Z,7.60
2022-10-10T03:32:19.692Z,7.18
2022-10-10T03:34:46.829Z,4.32
2022-10-10T03:37:13.932Z,3.13
2022-10-10T03:39:41.132Z,6.15
2022-10-10T03:42:08.298Z,4.75
2022-10-10T03:44:35.398Z,3.28
2022-10-10T03:47:02.493Z,5.60
2022-10-10T03:49:29.884Z,6.70
2022-10-10T03:51:57.118Z,6.80
2022-10-10T03:54:24.248Z,6.72
2022-10-10T03:56:51.333Z,7.60
2022-10-10T03:59:18.470Z,5.28
2022-10-10T04:01:46.012Z,6.13
2022-10-10T04:04:13.175Z,9.85
2022-10-10T04:06:40.304Z,5.70
2022-10-10T04:09:07.487Z,5.38
2022-10-10T04:11:36.458Z,6.35
2022-10-10T04:14:03.640Z,5.40
2022-10-10T04:16:30.741Z,7.68
2022-10-10T04:18:57.858Z,8.43
2022-10-10T04:21:24.986Z,7.97
2022-10-10T04:23:52.209Z,6.00
2022-10-10T04:26:19.304Z,8.25
2022-10-10T04:28:46.831Z,9.10
2022-10-10T04:31:14.052Z,9.05
2022-10-10T04:33:41.160Z,12.55
2022-10-10T04:36:08.407Z,41.17
2022-10-10T04:38:35.705Z,24.83
2022-10-10T04:41:03.452Z,15.05
2022-10-10T04:43:30.647Z,18.13
2022-10-10T04:46:01.317Z,9.60
2022-10-10T04:48:28.670Z,13.73
2022-10-10T04:50:57.287Z,10.18
2022-10-10T04:53:24.699Z,6.88
2022-10-10T04:55:51.826Z,8.30
2022-10-10T04:58:19.400Z,22.20
2022-10-10T05:00:46.503Z,12.93
2022-10-10T05:03:13.630Z,16.23
2022-10-10T05:05:40.821Z,10.63
2022-10-10T05:08:08.032Z,11.45
2022-10-10T05:10:39.236Z,7.18
2022-10-10T05:13:06.790Z,20.00
2022-10-10T05:15:37.328Z,11.52
2022-10-10T05:18:04.957Z,6.63
2022-10-10T05:20:32.633Z,12.32
2022-10-10T05:22:59.766Z,5.70
2022-10-10T05:25:27.086Z,8.38
2022-10-10T05:27:54.221Z,11.70
2022-10-10T05:30:21.562Z,5.85
2022-10-10T05:32:48.991Z,8.45
2022-10-10T05:35:16.432Z,10.25
2022-10-10T05:37:43.556Z,10.00
2022-10-10T05:40:11.566Z,8.13
2022-10-10T05:42:38.732Z,11.70
2022-10-10T05:45:06.234Z,22.95
2022-10-10T05:47:33.481Z,12.50
2022-10-10T05:50:00.649Z,12.13
2022-10-10T05:52:29.196Z,18.63
2022-10-10T05:54:56.339Z,8.20
2022-10-10T05:57:23.573Z,17.13
2022-10-10T05:59:50.731Z,9.27
2022-10-10T06:02:18.015Z,8.93
2022-10-10T06:04:45.277Z,33.70
2022-10-10T06:07:12.454Z,29.73
2022-10-10T06:09:39.568Z,22.90
2022-10-10T06:12:06.718Z,17.50
2022-10-10T06:14:33.960Z,29.70
2022-10-10T06:17:01.048Z,56.42
2022-10-10T06:19:28.163Z,26.80
2022-10-10T06:21:55.243Z,19.52
2022-10-10T06:24:22.432Z,15.00
2022-10-10T06:26:49.560Z,20.00
2022-10-10T06:29:16.686Z,29.30
2022-10-10T06:31:43.905Z,42.15
2022-10-10T06:34:13.214Z,22.92
2022-10-10T06:36:40.318Z,16.55
2022-10-10T06:39:07.498Z,15.98
2022-10-10T06:41:34.597Z,13.65
2022-10-10T06:44:01.888Z,19.67
2022-10-10T06:46:29.061Z,27.13
2022-10-10T06:48:56.226Z,24.13
2022-10-10T06:51:24.444Z,34.05
2022-10-10T06:53:51.536Z,130.82
2022-10-10T06:56:26.269Z,102.35
2022-10-10T06:58:54.600Z,43.38
2022-10-10T07:01:22.880Z,55.38
2022-10-10T07:03:50.139Z,50.90
2022-10-10T07:06:18.273Z,41.00
2022-10-10T07:08:45.377Z,37.08
2022-10-10T07:11:13.049Z,78.95
2022-10-10T07:13:40.636Z,176.32
2022-10-10T07:16:07.833Z,42.53
2022-10-10T07:18:36.843Z,23.13
2022-10-10T07:21:05.039Z,29.20
2022-10-10T07:23:32.969Z,21.88
2022-10-10T07:26:01.727Z,8.05
2022-10-10T07:28:29.101Z,18.30
2022-10-10T07:31:00.952Z,9.38
2022-10-10T07:33:31.775Z,7.93
2022-10-10T07:35:58.869Z,5.82
2022-10-10T07:38:26.354Z,6.68
2022-10-10T07:40:57.228Z,6.88
2022-10-10T07:43:24.763Z,9.23
2022-10-10T07:45:52.070Z,7.30
2022-10-10T07:48:19.589Z,5.32
2022-10-10T07:50:46.736Z,6.63
2022-10-10T07:53:14.012Z,14.60
2022-10-10T07:55:44.407Z,8.57
2022-10-10T07:58:12.414Z,4.32
2022-10-10T08:00:43.656Z,3.42
2022-10-10T08:03:12.342Z,9.32
2022-10-10T08:05:40.967Z,10.25
2022-10-10T08:08:08.267Z,3.55
2022-10-10T08:10:35.643Z,3.45
2022-10-10T08:13:02.973Z,6.78
2022-10-10T08:15:33.142Z,5.50
2022-10-10T08:18:01.235Z,3.78
2022-10-10T08:20:28.414Z,3.80
2022-10-10T08:22:55.552Z,6.75
2022-10-10T08:25:22.834Z,6.60
2022-10-10T08:27:49.969Z,9.30
2022-10-10T08:30:17.126Z,8.05
2022-10-10T08:32:44.713Z,7.38
2022-10-10T08:35:11.908Z,6.50
2022-10-10T08:37:39.001Z,5.95
2022-10-10T08:40:06.666Z,6.20
2022-10-10T08:42:54.371Z,5.53
2022-10-10T08:45:24.184Z,9.02
2022-10-10T08:47:57.434Z,3.72
2022-10-10T08:50:28.341Z,3.35
2022-10-10T08:52:58.327Z,9.35
2022-10-10T08:55:33.812Z,4.97
2022-10-10T08:58:04.025Z,11.32
2022-10-10T09:00:33.901Z,9.60
2022-10-10T09:03:01.586Z,7.85
2022-10-10T09:05:28.768Z,5.13
2022-10-10T09:07:55.860Z,8.82
2022-10-10T09:10:32.597Z,7.65
2022-10-10T09:13:21.713Z,10.68
2022-10-10T09:15:48.845Z,7.00
2022-10-10T09:18:37.917Z,3.78
2022-10-10T09:21:09.661Z,9.07
2022-10-10T09:23:48.284Z,3.50
2022-10-10T09:26:16.727Z,7.38
2022-10-10T09:28:59.186Z,32.78
2022-10-10T09:31:26.347Z,10.93
2022-10-10T09:33:56.555Z,6.85
2022-10-10T09:36:25.357Z,5.20
2022-10-10T09:38:57.289Z,8.85
2022-10-10T09:41:29.170Z,3.85
2022-10-10T09:44:00.692Z,9.35
2022-10-10T09:46:27.834Z,5.15
2022-10-10T09:48:55.261Z,10.40
2022-10-10T09:51:22.600Z,5.25
2022-10-10T09:53:50.335Z,7.18
2022-10-10T09:56:17.507Z,3.38
2022-10-10T09:58:45.903Z,6.35
2022-10-10T10:01:31.113Z,9.32
2022-10-10T10:04:27.090Z,12.82
2022-10-10T10:07:04.139Z,7.78
2022-10-10T10:09:31.380Z,4.18
2022-10-10T10:11:59.078Z,7.75
2022-10-10T10:14:28.379Z,5.70
2022-10-10T10:16:56.949Z,3.03
2022-10-10T10:19:37.473Z,3.40
2022-10-10T10:22:05.125Z,21.50
2022-10-10T10:24:36.424Z,4.88
2022-10-10T10:27:09.482Z,7.57
2022-10-10T10:29:36.980Z,6.07
2022-10-10T10:32:05.890Z,6.82
2022-10-10T10:34:36.238Z,4.57
2022-10-10T10:37:06.323Z,11.18
2022-10-10T10:39:39.971Z,3.83
2022-10-10T10:42:10.699Z,14.98
2022-10-10T10:44:56.305Z,4.90
2022-10-10T10:47:29.822Z,4.55
2022-10-10T10:50:16.775Z,3.15
2022-10-10T10:53:10.099Z,7.38
2022-10-10T10:55:45.589Z,7.07
2022-10-10T11:01:38.495Z,6.53
2022-10-10T11:05:22.273Z,6.00
2022-10-10T11:07:25.140Z,3.63
2022-10-10T11:09:54.995Z,18.20
2022-10-10T11:12:25.767Z,8.20
2022-10-10T11:15:11.482Z,21.52
2022-10-10T11:17:48.350Z,2.70
2022-10-10T11:20:26.389Z,4.30
2022-10-10T11:22:57.358Z,4.32
2022-10-10T11:25:27.476Z,7.43
2022-10-10T11:28:00.930Z,4.50
2022-10-10T11:30:31.606Z,8.90
2022-10-10T11:33:03.000Z,4.82
2022-10-10T11:35:30.390Z,4.85
2022-10-10T11:38:04.359Z,8.48
2022-10-10T11:40:47.243Z,3.50
2022-10-10T11:43:17.634Z,8.65
2022-10-10T11:45:53.709Z,6.30
2022-10-10T11:48:21.908Z,4.38
2022-10-10T11:50:52.296Z,3.00
2022-10-10T11:53:31.871Z,14.02
2022-10-10T11:55:59.217Z,3.15
2022-10-10T11:58:26.719Z,2.80
2022-10-10T12:00:55.618Z,4.25
2022-10-10T12:03:25.090Z,7.25
2022-10-10T12:05:55.462Z,9.05
2022-10-10T12:08:29.402Z,3.85
2022-10-10T12:11:01.783Z,4.72
2022-10-10T12:13:32.167Z,4.28
2022-10-10T12:16:02.555Z,5.43
2022-10-10T12:18:39.801Z,3.90
2022-10-10T12:21:08.376Z,5.20
2022-10-10T12:23:35.803Z,9.32
2022-10-10T12:26:03.374Z,32.85
2022-10-10T12:28:34.000Z,7.55
2022-10-10T12:31:07.263Z,3.97
2022-10-10T12:33:34.441Z,9.25
2022-10-10T12:36:19.952Z,5.45
2022-10-10T12:39:16.402Z,2.00
2022-10-10T12:41:47.396Z,8.90
2022-10-10T12:44:20.730Z,5.25
2022-10-10T12:46:50.766Z,8.27
2022-10-10T12:49:25.522Z,13.63
2022-10-10T12:52:04.038Z,7.13
2022-10-10T12:54:34.334Z,6.85
2022-10-10T12:57:06.992Z,4.78
2022-10-10T12:59:35.589Z,6.80
2022-10-10T13:02:06.582Z,4.78
2022-10-10T13:04:34.042Z,6.35
2022-10-10T13:07:02.769Z,4.65
2022-10-10T13:09:35.936Z,5.88
2022-10-10T13:12:07.735Z,5.78
2022-10-10T13:14:39.593Z,4.35
2022-10-10T13:17:27.183Z,4.15
2022-10-10T13:19:55.187Z,10.70
2022-10-10T13:22:22.711Z,10.98
2022-10-10T13:24:50.250Z,4.53
2022-10-10T13:27:25.408Z,6.78
2022-10-10T13:29:53.248Z,8.23
2022-10-10T13:32:28.579Z,7.25
2022-10-10T13:35:04.477Z,7.10
2022-10-10T13:37:31.835Z,6.72
2022-10-10T13:39:59.417Z,9.45
2022-10-10T13:42:29.344Z,6.15
2022-10-10T13:44:56.894Z,4.60
2022-10-10T13:47:42.750Z,6.03
2022-10-10T13:50:18.970Z,3.83
2022-10-10T13:52:46.114Z,11.40
2022-10-10T13:55:16.453Z,5.68
2022-10-10T13:57:43.596Z,10.80
2022-10-10T14:00:21.122Z,10.02
2022-10-10T14:02:49.131Z,6.00
2022-10-10T14:05:32.631Z,9.65
2022-10-10T14:08:00.123Z,7.10
2022-10-10T14:10:28.949Z,10.30
2022-10-10T14:12:58.212Z,8.23
2022-10-10T14:15:37.618Z,10.32
2022-10-10T14:18:14.236Z,12.40
2022-10-10T14:20:41.457Z,11.35
2022-10-10T14:23:08.652Z,8.23
2022-10-10T14:25:37.410Z,10.57
2022-10-10T14:28:04.616Z,9.50
2022-10-10T14:30:32.032Z,9.23
2022-10-10T14:32:59.250Z,7.50
2022-10-10T14:35:26.525Z,3.30
2022-10-10T14:37:53.694Z,5.53
2022-10-10T14:40:22.116Z,7.05
2022-10-10T14:42:49.533Z,5.15
2022-10-10T14:45:17.674Z,6.88
2022-10-10T14:47:44.969Z,9.77
2022-10-10T14:50:16.426Z,8.27
2022-10-10T14:52:43.571Z,10.05
2022-10-10T14:55:11.564Z,7.15
2022-10-10T14:57:39.164Z,6.88
2022-10-10T15:00:07.520Z,3.90
2022-10-10T15:02:34.736Z,5.15
2022-10-10T15:05:01.920Z,5.55
2022-10-10T15:07:29.277Z,7.35
2022-10-10T15:10:31.670Z,8.68
2022-10-10T15:12:45.125Z,18.23
2022-10-10T15:15:13.373Z,6.25
2022-10-10T15:17:40.904Z,5.00
2022-10-10T15:20:09.350Z,10.35
2022-10-10T15:22:37.234Z,13.57
2022-10-10T15:25:05.047Z,5.30
2022-10-10T15:27:32.974Z,6.53
2022-10-10T15:30:00.313Z,6.10
2022-10-10T15:32:27.569Z,5.85
2022-10-10T15:34:54.746Z,8.98
2022-10-10T15:37:24.548Z,6.20
2022-10-10T15:39:51.668Z,8.98
2022-10-10T15:42:23.085Z,11.52
2022-10-10T15:44:51.302Z,7.40
2022-10-10T15:47:18.947Z,14.70
2022-10-10T15:49:46.208Z,15.82
2022-10-10T15:52:13.362Z,43.22
2022-10-10T15:54:40.549Z,52.78
2022-10-10T15:57:07.637Z,23.10
2022-10-10T15:59:37.845Z,25.65
2022-10-10T16:02:07.829Z,27.63
2022-10-10T16:04:35.013Z,26.65
2022-10-10T16:09:49.247Z,28.67
2022-10-10T16:12:16.372Z,14.73
2022-10-10T16:14:43.643Z,11.23
2022-10-10T16:17:10.778Z,17.15
2022-10-10T16:19:37.903Z,11.95
2022-10-10T16:22:05.033Z,29.25
2022-10-10T16:24:32.120Z,62.53
2022-10-10T16:26:59.796Z,48.95
2022-10-10T16:29:26.907Z,36.42
2022-10-10T16:31:54.022Z,29.02
2022-10-10T16:34:21.115Z,39.22
2022-10-10T16:36:48.239Z,32.13
2022-10-10T16:39:18.289Z,23.45
2022-10-10T16:41:48.363Z,24.83
2022-10-10T16:44:16.308Z,17.60
2022-10-10T16:46:43.435Z,51.58
2022-10-10T16:49:12.525Z,38.45
2022-10-10T16:51:39.705Z,15.02
2022-10-10T16:54:07.447Z,17.10
2022-10-10T16:56:34.693Z,26.50
2022-10-10T16:59:01.862Z,24.05
2022-10-10T17:01:29.283Z,22.55
2022-10-10T17:03:58.671Z,26.33
2022-10-10T17:06:28.120Z,20.05
2022-10-10T17:08:59.921Z,15.45
2022-10-10T17:11:27.379Z,15.90
2022-10-10T17:13:54.571Z,15.10
2022-10-10T17:19:10.129Z,12.88
2022-10-10T17:21:37.254Z,11.88
2022-10-10T17:24:04.461Z,12.32
2022-10-10T17:26:31.602Z,13.40
2022-10-10T17:28:59.613Z,11.57
2022-10-10T17:31:27.237Z,8.00
2022-10-10T17:33:55.063Z,29.38
2022-10-10T17:36:26.397Z,19.95
2022-10-10T17:38:55.927Z,25.58
2022-10-10T17:41:23.297Z,25.08
2022-10-10T17:43:50.406Z,23.23
2022-10-10T17:46:34.260Z,31.45
2022-10-10T17:49:02.633Z,26.88
2022-10-10T17:51:29.816Z,18.98
2022-10-10T17:53:59.431Z,15.95
2022-10-10T17:56:26.538Z,18.08
2022-10-10T17:58:53.727Z,21.00
2022-10-10T18:01:21.313Z,17.10
2022-10-10T18:03:49.223Z,12.63
2022-10-10T18:06:18.247Z,13.32
2022-10-10T18:08:47.048Z,14.63
2022-10-10T18:11:19.148Z,17.23
2022-10-10T18:13:46.685Z,17.15
2022-10-10T18:16:15.537Z,14.80
2022-10-10T18:18:46.956Z,23.27
2022-10-10T18:21:17.013Z,11.38
2022-10-10T18:23:44.217Z,19.05
2022-10-10T18:26:31.989Z,21.75
2022-10-10T18:28:59.624Z,16.85
2022-10-10T18:31:28.014Z,22.65
2022-10-10T18:33:55.142Z,18.02
2022-10-10T18:36:24.338Z,16.10
2022-10-10T18:38:51.465Z,20.63
2022-10-10T18:41:22.915Z,24.17
2022-10-10T18:43:51.110Z,22.20
2022-10-10T18:46:20.214Z,16.60
2022-10-10T18:48:51.497Z,20.95
2022-10-10T18:51:24.178Z,17.42
2022-10-10T18:53:52.299Z,18.10
2022-10-10T18:56:24.441Z,14.05
2022-10-10T18:58:53.830Z,18.38
2022-10-10T19:01:24.821Z,12.60
2022-10-10T19:03:52.389Z,24.00
2022-10-10T19:06:19.952Z,18.10
2022-10-10T19:08:47.232Z,16.45
2022-10-10T19:11:20.555Z,13.27
2022-10-10T19:13:47.751Z,15.05
2022-10-10T19:16:15.004Z,18.65
2022-10-10T19:18:42.189Z,23.08
2022-10-10T19:21:10.224Z,15.90
2022-10-10T19:23:37.668Z,23.63
2022-10-10T19:26:06.135Z,12.60
2022-10-10T19:28:33.986Z,13.20
2022-10-10T19:31:08.655Z,15.73
2022-10-10T19:33:36.343Z,20.88
2022-10-10T19:36:05.965Z,19.65
2022-10-10T19:38:34.568Z,19.17
2022-10-10T19:41:02.190Z,17.67
2022-10-10T19:43:29.651Z,14.63
2022-10-10T19:45:56.794Z,12.63
2022-10-10T19:48:24.844Z,12.75
2022-10-10T19:50:53.913Z,12.85
2022-10-10T19:53:21.068Z,14.63
2022-10-10T19:56:02.116Z,12.02
2022-10-10T19:58:32.769Z,14.38
2022-10-10T20:00:59.920Z,13.43
2022-10-10T20:03:27.123Z,14.38
2022-10-10T20:06:00.546Z,12.57
2022-10-10T20:08:28.440Z,10.88
2022-10-10T20:10:55.632Z,11.10
2022-10-10T20:13:22.789Z,16.95
2022-10-10T20:15:50.413Z,11.80
2022-10-10T20:18:18.716Z,12.40
2022-10-10T20:20:50.359Z,10.02
2022-10-10T20:23:21.769Z,18.55
2022-10-10T20:25:49.134Z,19.08
2022-10-10T20:28:17.226Z,18.48
2022-10-10T20:30:45.914Z,17.23
2022-10-10T20:33:13.182Z,11.90
2022-10-10T20:35:40.356Z,18.83
2022-10-10T20:38:10.634Z,13.00
2022-10-10T20:40:38.446Z,16.70
2022-10-10T20:43:06.003Z,11.70
2022-10-10T20:45:35.905Z,16.45
2022-10-10T20:48:03.417Z,19.70
2022-10-10T20:50:30.633Z,16.30
2022-10-10T20:52:57.988Z,20.58
2022-10-10T20:55:25.151Z,15.00
2022-10-10T20:57:52.340Z,10.07
2022-10-10T21:00:20.556Z,15.32
2022-10-10T21:02:47.835Z,16.80
2022-10-10T21:05:15.056Z,14.18
2022-10-10T21:07:42.238Z,15.18
2022-10-10T21:10:09.736Z,14.38
2022-10-10T21:12:36.821Z,10.77
2022-10-10T21:15:04.186Z,11.18
2022-10-10T21:17:31.347Z,14.77
2022-10-10T21:19:58.507Z,17.17
2022-10-10T21:22:25.698Z,15.15
2022-10-10T21:24:52.872Z,14.73
2022-10-10T21:27:20.025Z,15.05
2022-10-10T21:29:47.155Z,14.77
2022-10-10T21:32:14.345Z,14.55
2022-10-10T21:34:41.455Z,12.93
2022-10-10T21:37:08.564Z,17.30
2022-10-10T21:39:35.764Z,19.13
2022-10-10T21:42:02.945Z,14.93
2022-10-10T21:44:30.143Z,20.10
2022-10-10T21:46:57.261Z,10.65
2022-10-10T21:49:24.383Z,18.08
2022-10-10T21:51:51.546Z,14.77
2022-10-10T21:54:18.722Z,12.70
2022-10-10T21:56:45.874Z,13.10
2022-10-10T21:59:13.128Z,12.05
2022-10-10T22:01:40.235Z,16.73
2022-10-10T22:04:07.473Z,13.15
2022-10-10T22:06:34.669Z,13.05
2022-10-10T22:09:02.351Z,9.60
2022-10-10T22:11:30.669Z,15.50
2022-10-10T22:13:58.157Z,11.15
2022-10-10T22:16:25.400Z,11.70
2022-10-10T22:18:56.314Z,13.02
2022-10-10T22:21:28.009Z,22.02
2022-10-10T22:23:58.293Z,12.50
2022-10-10T22:26:25.526Z,12.73
2022-10-10T22:28:52.713Z,13.93
2022-10-10T22:31:20.219Z,20.35
2022-10-10T22:33:47.322Z,15.32
2022-10-10T22:36:14.517Z,15.80
2022-10-10T22:38:42.908Z,11.82
2022-10-10T22:41:10.538Z,13.77
2022-10-10T22:43:37.668Z,16.40
2022-10-10T22:46:05.746Z,19.27
2022-10-10T22:48:33.270Z,16.90
2022-10-10T22:51:01.943Z,15.35
2022-10-10T22:53:29.953Z,22.75
2022-10-10T22:55:57.201Z,11.43
2022-10-10T22:58:24.597Z,20.30
2022-10-10T23:00:51.862Z,13.48
2022-10-10T23:03:19.123Z,11.77
2022-10-10T23:05:46.587Z,12.68
2022-10-10T23:08:13.753Z,18.23
2022-10-10T23:10:41.191Z,13.90
2022-10-10T23:13:08.273Z,17.20
2022-10-10T23:15:35.427Z,12.93
2022-10-10T23:18:02.539Z,17.85
2022-10-10T23:20:29.644Z,11.68
2022-10-10T23:22:56.869Z,14.20
2022-10-10T23:25:24.048Z,16.73
2022-10-10T23:27:51.203Z,11.68
2022-10-10T23:30:18.369Z,18.90
2022-10-10T23:32:45.529Z,14.25
2022-10-10T23:35:13.699Z,12.65
2022-10-10T23:37:41.500Z,18.15
2022-10-10T23:40:09.086Z,13.90
2022-10-10T23:42:36.192Z,15.63
2022-10-10T23:45:04.005Z,10.65
2022-10-10T23:47:31.223Z,15.35
2022-10-10T23:49:58.973Z,12.27
2022-10-10T23:52:26.122Z,17.20
2022-10-10T23:54:53.244Z,11.20
2022-10-10T23:57:20.593Z,12.07
2022-10-10T23:59:48.912Z,14.50
